VLO6021 SBSV-SBEG
Flight info
| Callsign | VLO6021 |
|---|---|
| Flight time | 3h 6m |
| Altitude | FL300 |
| Route | PABU1A BOGUT UZ9 ITATU UM423 MOPLI UZ81 KULAB KULA1A |
| Aircraft | B703/H-VRDW/C |
Departure
| Time | 2026-05-06 17:46 |
|---|---|
| Airport | Deputado Luiz Eduardo Magalhães International Airport (SBSV) |
Arrival
| Time | 2026-05-06 20:53 |
|---|---|
| Airport | Eduardo Gomes International Airport (SBEG) |
| Time | Latitude | Longitude | Altitude | Speed | Heading |
|---|---|---|---|---|---|
| 2026-05-06 17:32 | -12.91323 | -38.32922 | 48 ft | 0 kts | 168° |
| 2026-05-06 17:38 | -12.91316 | -38.32924 | 48 ft | 4 kts | 168° |
| 2026-05-06 17:39 | -12.91268 | -38.32934 | 48 ft | 9 kts | 168° |
| 2026-05-06 17:39 | -12.91227 | -38.32911 | 48 ft | 6 kts | 265° |
| 2026-05-06 17:39 | -12.91226 | -38.32898 | 48 ft | 0 kts | 265° |
| 2026-05-06 17:41 | -12.91226 | -38.32908 | 48 ft | 6 kts | 265° |
| 2026-05-06 17:42 | -12.91242 | -38.32994 | 47 ft | 18 kts | 258° |
| 2026-05-06 17:42 | -12.91272 | -38.33145 | 46 ft | 22 kts | 258° |
| 2026-05-06 17:42 | -12.91294 | -38.33292 | 45 ft | 18 kts | 290° |
| 2026-05-06 17:42 | -12.91222 | -38.33372 | 43 ft | 13 kts | 297° |
| 2026-05-06 17:43 | -12.91201 | -38.33464 | 42 ft | 14 kts | 266° |
| 2026-05-06 17:43 | -12.91208 | -38.33504 | 42 ft | 0 kts | 257° |
| 2026-05-06 17:44 | -12.91209 | -38.33506 | 42 ft | 1 kts | 257° |
| 2026-05-06 17:44 | -12.91213 | -38.33526 | 42 ft | 5 kts | 257° |
| 2026-05-06 17:44 | -12.91210 | -38.33569 | 42 ft | 8 kts | 294° |
| 2026-05-06 17:45 | -12.91157 | -38.33595 | 41 ft | 10 kts | 21° |
| 2026-05-06 17:45 | -12.91126 | -38.33522 | 41 ft | 15 kts | 78° |
| 2026-05-06 17:45 | -12.91055 | -38.33174 | 44 ft | 86 kts | 78° |
| 2026-05-06 17:45 | -12.90886 | -38.32329 | 54 ft | 155 kts | 79° |
| 2026-05-06 17:46 | -12.90626 | -38.31106 | 298 ft | 183 kts | 82° |
| 2026-05-06 17:46 | -12.90330 | -38.29824 | 762 ft | 191 kts | 68° |
| 2026-05-06 17:46 | -12.89434 | -38.28803 | 1264 ft | 201 kts | 30° |
| 2026-05-06 17:46 | -12.88067 | -38.28481 | 1768 ft | 205 kts | 2° |
| 2026-05-06 17:47 | -12.86636 | -38.28478 | 2267 ft | 206 kts | 0° |
| 2026-05-06 17:47 | -12.85181 | -38.28496 | 2772 ft | 208 kts | 360° |
| 2026-05-06 17:47 | -12.83729 | -38.28514 | 3272 ft | 209 kts | 360° |
| 2026-05-06 17:47 | -12.82271 | -38.28532 | 3771 ft | 210 kts | 360° |
| 2026-05-06 17:48 | -12.80799 | -38.28551 | 4272 ft | 212 kts | 360° |
| 2026-05-06 17:48 | -12.79323 | -38.28569 | 4771 ft | 213 kts | 360° |
| 2026-05-06 17:48 | -12.77835 | -38.28588 | 5271 ft | 214 kts | 360° |
| 2026-05-06 17:48 | -12.76325 | -38.28606 | 5779 ft | 222 kts | 360° |
| 2026-05-06 17:49 | -12.74722 | -38.28626 | 6302 ft | 234 kts | 360° |
| 2026-05-06 17:49 | -12.73047 | -38.28646 | 6818 ft | 247 kts | 360° |
| 2026-05-06 17:49 | -12.71289 | -38.28683 | 7332 ft | 259 kts | 358° |
| 2026-05-06 17:49 | -12.69442 | -38.28782 | 7847 ft | 271 kts | 357° |
| 2026-05-06 17:50 | -12.67532 | -38.28894 | 8355 ft | 282 kts | 357° |
| 2026-05-06 17:50 | -12.65513 | -38.29014 | 8870 ft | 294 kts | 357° |
| 2026-05-06 17:50 | -12.63442 | -38.29137 | 9376 ft | 300 kts | 357° |
| 2026-05-06 17:50 | -12.61336 | -38.29262 | 9880 ft | 302 kts | 357° |
| 2026-05-06 17:51 | -12.59229 | -38.29386 | 10380 ft | 304 kts | 357° |
| 2026-05-06 17:51 | -12.57098 | -38.29512 | 10883 ft | 310 kts | 357° |
| 2026-05-06 17:51 | -12.54907 | -38.29642 | 11391 ft | 321 kts | 357° |
| 2026-05-06 17:51 | -12.52696 | -38.29772 | 11887 ft | 332 kts | 357° |
| 2026-05-06 17:52 | -12.50278 | -38.29915 | 12409 ft | 344 kts | 357° |
| 2026-05-06 17:52 | -12.47847 | -38.30058 | 12918 ft | 355 kts | 357° |
| 2026-05-06 17:52 | -12.45318 | -38.30206 | 13430 ft | 366 kts | 357° |
| 2026-05-06 17:52 | -12.42754 | -38.30364 | 13960 ft | 372 kts | 354° |
| 2026-05-06 17:53 | -12.40257 | -38.31045 | 14696 ft | 372 kts | 334° |
| 2026-05-06 17:53 | -12.38150 | -38.32549 | 15444 ft | 370 kts | 313° |
| 2026-05-06 17:53 | -12.36670 | -38.34656 | 16193 ft | 367 kts | 296° |
| 2026-05-06 17:53 | -12.35540 | -38.36979 | 16940 ft | 367 kts | 293° |
| 2026-05-06 17:54 | -12.34468 | -38.39344 | 17614 ft | 369 kts | 292° |
| 2026-05-06 17:54 | -12.33396 | -38.41741 | 18242 ft | 373 kts | 292° |
| 2026-05-06 17:54 | -12.32311 | -38.44171 | 18871 ft | 376 kts | 292° |
| 2026-05-06 17:54 | -12.31233 | -38.46614 | 19496 ft | 379 kts | 292° |
| 2026-05-06 17:55 | -12.30181 | -38.49081 | 20120 ft | 381 kts | 291° |
| 2026-05-06 17:55 | -12.29129 | -38.51567 | 20745 ft | 383 kts | 291° |
| 2026-05-06 17:55 | -12.28069 | -38.54076 | 21373 ft | 391 kts | 291° |
| 2026-05-06 17:55 | -12.26983 | -38.56647 | 22003 ft | 400 kts | 291° |
| 2026-05-06 17:56 | -12.25872 | -38.59277 | 22633 ft | 409 kts | 291° |
| 2026-05-06 17:56 | -12.24730 | -38.61979 | 23266 ft | 416 kts | 291° |
| 2026-05-06 17:56 | -12.23577 | -38.64705 | 23894 ft | 421 kts | 291° |
| 2026-05-06 17:56 | -12.22414 | -38.67454 | 24519 ft | 426 kts | 291° |
| 2026-05-06 17:57 | -12.21239 | -38.70231 | 25144 ft | 429 kts | 291° |
| 2026-05-06 17:57 | -12.20053 | -38.73031 | 25768 ft | 431 kts | 291° |
| 2026-05-06 17:57 | -12.18865 | -38.75835 | 26391 ft | 432 kts | 291° |
| 2026-05-06 17:57 | -12.17675 | -38.78646 | 27013 ft | 432 kts | 291° |
| 2026-05-06 17:58 | -12.16480 | -38.81470 | 27638 ft | 431 kts | 291° |
| 2026-05-06 17:58 | -12.15295 | -38.84268 | 28258 ft | 429 kts | 291° |
| 2026-05-06 17:58 | -12.14116 | -38.87051 | 28877 ft | 426 kts | 291° |
| 2026-05-06 17:58 | -12.12949 | -38.89806 | 29494 ft | 422 kts | 291° |
| 2026-05-06 17:59 | -12.11794 | -38.92528 | 30110 ft | 417 kts | 291° |
| 2026-05-06 17:59 | -12.10652 | -38.95220 | 30726 ft | 412 kts | 291° |
| 2026-05-06 17:59 | -12.09524 | -38.97881 | 31242 ft | 410 kts | 291° |
| 2026-05-06 17:59 | -12.08377 | -39.00587 | 31353 ft | 418 kts | 291° |
| 2026-05-06 18:00 | -12.06021 | -39.06147 | 31365 ft | 437 kts | 291° |
| 2026-05-06 18:00 | -12.03567 | -39.11933 | 31364 ft | 453 kts | 292° |
| 2026-05-06 18:01 | -12.01030 | -39.17904 | 31363 ft | 467 kts | 292° |
| 2026-05-06 18:01 | -11.98162 | -39.23908 | 31362 ft | 478 kts | 295° |
| 2026-05-06 18:02 | -11.95133 | -39.30009 | 31362 ft | 487 kts | 295° |
| 2026-05-06 18:02 | -11.92047 | -39.36205 | 31361 ft | 495 kts | 295° |
| 2026-05-06 18:03 | -11.88906 | -39.42509 | 31361 ft | 501 kts | 295° |
| 2026-05-06 18:03 | -11.85739 | -39.48859 | 31361 ft | 506 kts | 295° |
| 2026-05-06 18:04 | -11.82548 | -39.55254 | 31360 ft | 509 kts | 295° |
| 2026-05-06 18:04 | -11.79329 | -39.61685 | 31360 ft | 512 kts | 296° |
| 2026-05-06 18:05 | -11.76035 | -39.68131 | 31355 ft | 515 kts | 296° |
| 2026-05-06 18:05 | -11.74360 | -39.71393 | 31239 ft | 518 kts | 296° |
| 2026-05-06 18:05 | -11.72691 | -39.74641 | 31116 ft | 521 kts | 296° |
| 2026-05-06 18:06 | -11.71011 | -39.77908 | 30994 ft | 524 kts | 296° |
| 2026-05-06 18:06 | -11.69322 | -39.81192 | 30871 ft | 526 kts | 296° |
| 2026-05-06 18:06 | -11.65923 | -39.87799 | 30791 ft | 526 kts | 296° |
| 2026-05-06 18:07 | -11.62531 | -39.94386 | 30776 ft | 525 kts | 296° |
| 2026-05-06 18:07 | -11.59147 | -40.00960 | 30760 ft | 525 kts | 296° |
| 2026-05-06 18:08 | -11.55772 | -40.07523 | 30746 ft | 524 kts | 296° |
| 2026-05-06 18:08 | -11.52384 | -40.14108 | 30732 ft | 524 kts | 296° |
| 2026-05-06 18:09 | -11.49015 | -40.20657 | 30718 ft | 524 kts | 296° |
| 2026-05-06 18:09 | -11.47336 | -40.23935 | 30607 ft | 526 kts | 296° |
| 2026-05-06 18:09 | -11.45648 | -40.27234 | 30485 ft | 528 kts | 296° |
| 2026-05-06 18:10 | -11.43953 | -40.30547 | 30362 ft | 529 kts | 296° |
| 2026-05-06 18:10 | -11.42247 | -40.33882 | 30306 ft | 529 kts | 296° |
| 2026-05-06 18:10 | -11.38855 | -40.40507 | 30303 ft | 527 kts | 296° |
| 2026-05-06 18:11 | -11.35483 | -40.47088 | 30303 ft | 526 kts | 296° |
| 2026-05-06 18:11 | -11.32111 | -40.53666 | 30303 ft | 525 kts | 296° |
| 2026-05-06 18:12 | -11.28733 | -40.60253 | 30303 ft | 524 kts | 296° |
| 2026-05-06 18:12 | -11.25370 | -40.66808 | 30303 ft | 524 kts | 296° |
| 2026-05-06 18:13 | -11.22286 | -40.73487 | 30304 ft | 522 kts | 291° |
| 2026-05-06 18:13 | -11.19586 | -40.80334 | 30304 ft | 522 kts | 290° |
| 2026-05-06 18:14 | -11.16921 | -40.87179 | 30304 ft | 521 kts | 290° |
| 2026-05-06 18:14 | -11.14264 | -40.94004 | 30304 ft | 521 kts | 290° |
| 2026-05-06 18:15 | -11.11602 | -41.00845 | 30304 ft | 521 kts | 290° |
| 2026-05-06 18:15 | -11.08948 | -41.07704 | 30304 ft | 521 kts | 290° |
| 2026-05-06 18:16 | -11.06298 | -41.14539 | 30304 ft | 521 kts | 290° |
| 2026-05-06 18:16 | -11.03646 | -41.21373 | 30304 ft | 521 kts | 290° |
| 2026-05-06 18:17 | -11.00986 | -41.28222 | 30304 ft | 521 kts | 290° |
| 2026-05-06 18:17 | -10.98332 | -41.35051 | 30304 ft | 521 kts | 290° |
| 2026-05-06 18:18 | -10.95674 | -41.41887 | 30304 ft | 521 kts | 290° |
| 2026-05-06 18:18 | -10.93017 | -41.48716 | 30304 ft | 521 kts | 290° |
| 2026-05-06 18:19 | -10.90350 | -41.55564 | 30304 ft | 521 kts | 290° |
| 2026-05-06 18:19 | -10.87692 | -41.62388 | 30304 ft | 521 kts | 290° |
| 2026-05-06 18:20 | -10.85032 | -41.69214 | 30304 ft | 521 kts | 290° |
| 2026-05-06 18:20 | -10.82364 | -41.76065 | 30304 ft | 521 kts | 290° |
| 2026-05-06 18:21 | -10.79705 | -41.82889 | 30304 ft | 521 kts | 290° |
| 2026-05-06 18:21 | -10.77040 | -41.89715 | 30304 ft | 521 kts | 290° |
| 2026-05-06 18:22 | -10.74375 | -41.96536 | 30304 ft | 521 kts | 290° |
| 2026-05-06 18:22 | -10.71699 | -42.03376 | 30304 ft | 521 kts | 290° |
| 2026-05-06 18:23 | -10.69031 | -42.10193 | 30304 ft | 521 kts | 290° |
| 2026-05-06 18:23 | -10.66361 | -42.17013 | 30304 ft | 521 kts | 290° |
| 2026-05-06 18:24 | -10.63685 | -42.23836 | 30304 ft | 521 kts | 290° |
| 2026-05-06 18:24 | -10.61001 | -42.30674 | 30305 ft | 521 kts | 290° |
| 2026-05-06 18:25 | -10.59667 | -42.34071 | 30412 ft | 519 kts | 290° |
| 2026-05-06 18:25 | -10.58335 | -42.37463 | 30535 ft | 517 kts | 290° |
| 2026-05-06 18:25 | -10.57006 | -42.40842 | 30658 ft | 516 kts | 290° |
| 2026-05-06 18:25 | -10.55687 | -42.44199 | 30780 ft | 514 kts | 290° |
| 2026-05-06 18:26 | -10.53023 | -42.50973 | 30657 ft | 519 kts | 290° |
| 2026-05-06 18:26 | -10.51685 | -42.54375 | 30534 ft | 522 kts | 290° |
| 2026-05-06 18:26 | -10.50339 | -42.57796 | 30411 ft | 525 kts | 290° |
| 2026-05-06 18:27 | -10.47635 | -42.64663 | 30302 ft | 526 kts | 290° |
| 2026-05-06 18:27 | -10.44927 | -42.71536 | 30303 ft | 525 kts | 290° |
| 2026-05-06 18:28 | -10.42216 | -42.78412 | 30303 ft | 524 kts | 290° |
| 2026-05-06 18:28 | -10.39515 | -42.85261 | 30303 ft | 524 kts | 290° |
| 2026-05-06 18:29 | -10.36817 | -42.92094 | 30303 ft | 523 kts | 290° |
| 2026-05-06 18:29 | -10.34116 | -42.98925 | 30304 ft | 523 kts | 290° |
| 2026-05-06 18:30 | -10.31406 | -43.05771 | 30304 ft | 523 kts | 290° |
| 2026-05-06 18:30 | -10.28701 | -43.12602 | 30304 ft | 523 kts | 290° |
| 2026-05-06 18:31 | -10.25998 | -43.19424 | 30304 ft | 523 kts | 290° |
| 2026-05-06 18:31 | -10.23284 | -43.26270 | 30304 ft | 523 kts | 290° |
| 2026-05-06 18:32 | -10.20580 | -43.33088 | 30304 ft | 523 kts | 290° |
| 2026-05-06 18:32 | -10.17874 | -43.39905 | 30304 ft | 523 kts | 290° |
| 2026-05-06 18:33 | -10.15161 | -43.46729 | 30304 ft | 523 kts | 290° |
| 2026-05-06 18:33 | -10.12444 | -43.53555 | 30304 ft | 523 kts | 290° |
| 2026-05-06 18:34 | -10.09732 | -43.60367 | 30304 ft | 523 kts | 290° |
| 2026-05-06 18:34 | -10.07018 | -43.67180 | 30304 ft | 523 kts | 290° |
| 2026-05-06 18:35 | -10.04293 | -43.74017 | 30304 ft | 523 kts | 290° |
| 2026-05-06 18:35 | -10.01581 | -43.80825 | 30304 ft | 523 kts | 290° |
| 2026-05-06 18:36 | -9.98872 | -43.87623 | 30507 ft | 520 kts | 290° |
| 2026-05-06 18:36 | -9.97525 | -43.91001 | 30630 ft | 518 kts | 290° |
| 2026-05-06 18:36 | -9.96182 | -43.94368 | 30754 ft | 517 kts | 290° |
| 2026-05-06 18:37 | -9.94831 | -43.97756 | 30878 ft | 516 kts | 290° |
| 2026-05-06 18:37 | -9.93941 | -43.99985 | 30960 ft | 515 kts | 290° |
| 2026-05-06 18:37 | -9.92152 | -44.04468 | 31125 ft | 514 kts | 290° |
| 2026-05-06 18:37 | -9.90820 | -44.07806 | 31185 ft | 515 kts | 290° |
| 2026-05-06 18:38 | -9.88135 | -44.14532 | 31191 ft | 518 kts | 290° |
| 2026-05-06 18:38 | -9.85423 | -44.21312 | 31191 ft | 520 kts | 290° |
| 2026-05-06 18:39 | -9.82710 | -44.28086 | 31191 ft | 522 kts | 290° |
| 2026-05-06 18:40 | -9.78619 | -44.38298 | 31191 ft | 524 kts | 290° |
| 2026-05-06 18:40 | -9.75876 | -44.45140 | 31191 ft | 525 kts | 290° |
| 2026-05-06 18:41 | -9.73137 | -44.51966 | 31191 ft | 525 kts | 290° |
| 2026-05-06 18:41 | -9.70397 | -44.58795 | 31191 ft | 526 kts | 291° |
| 2026-05-06 18:42 | -9.67655 | -44.65616 | 31354 ft | 523 kts | 291° |
| 2026-05-06 18:42 | -9.66279 | -44.69037 | 31456 ft | 522 kts | 291° |
| 2026-05-06 18:42 | -9.64917 | -44.72423 | 31477 ft | 522 kts | 291° |
| 2026-05-06 18:43 | -9.62180 | -44.79225 | 31477 ft | 524 kts | 291° |
| 2026-05-06 18:43 | -9.59435 | -44.86042 | 31477 ft | 525 kts | 291° |
| 2026-05-06 18:44 | -9.56674 | -44.92896 | 31476 ft | 526 kts | 291° |
| 2026-05-06 18:44 | -9.53918 | -44.99733 | 31476 ft | 527 kts | 291° |
| 2026-05-06 18:45 | -9.51158 | -45.06571 | 31476 ft | 527 kts | 291° |
| 2026-05-06 18:45 | -9.48390 | -45.13422 | 31476 ft | 527 kts | 291° |
| 2026-05-06 18:46 | -9.45613 | -45.20292 | 31476 ft | 528 kts | 291° |
| 2026-05-06 18:46 | -9.42844 | -45.27140 | 31476 ft | 528 kts | 291° |
| 2026-05-06 18:47 | -9.40080 | -45.33971 | 31476 ft | 528 kts | 291° |
| 2026-05-06 18:47 | -9.37285 | -45.40872 | 31476 ft | 528 kts | 291° |
| 2026-05-06 18:48 | -9.34508 | -45.47725 | 31476 ft | 528 kts | 291° |
| 2026-05-06 18:48 | -9.31733 | -45.54572 | 31476 ft | 528 kts | 291° |
| 2026-05-06 18:49 | -9.28952 | -45.61427 | 31476 ft | 528 kts | 291° |
| 2026-05-06 18:49 | -9.26161 | -45.68303 | 31476 ft | 528 kts | 291° |
| 2026-05-06 18:50 | -9.23378 | -45.75155 | 31475 ft | 528 kts | 291° |
| 2026-05-06 18:50 | -9.20593 | -45.82011 | 31475 ft | 528 kts | 291° |
| 2026-05-06 18:51 | -9.17800 | -45.88882 | 31475 ft | 528 kts | 291° |
| 2026-05-06 18:51 | -9.15013 | -45.95733 | 31475 ft | 528 kts | 291° |
| 2026-05-06 18:52 | -9.12227 | -46.02582 | 31475 ft | 528 kts | 291° |
| 2026-05-06 18:52 | -9.09451 | -46.09430 | 31475 ft | 528 kts | 291° |
| 2026-05-06 18:53 | -9.06665 | -46.16307 | 31475 ft | 528 kts | 291° |
| 2026-05-06 18:53 | -9.03888 | -46.23160 | 31475 ft | 528 kts | 291° |
| 2026-05-06 18:54 | -9.01107 | -46.30017 | 31475 ft | 529 kts | 291° |
| 2026-05-06 18:54 | -8.98318 | -46.36892 | 31475 ft | 529 kts | 291° |
| 2026-05-06 18:55 | -8.95540 | -46.43736 | 31474 ft | 529 kts | 291° |
| 2026-05-06 18:55 | -8.92758 | -46.50587 | 31474 ft | 529 kts | 291° |
| 2026-05-06 18:56 | -8.89975 | -46.57435 | 31474 ft | 529 kts | 291° |
| 2026-05-06 18:56 | -8.87180 | -46.64311 | 31474 ft | 529 kts | 291° |
| 2026-05-06 18:57 | -8.84376 | -46.71153 | 31474 ft | 529 kts | 291° |
| 2026-05-06 18:57 | -8.81568 | -46.77986 | 31474 ft | 529 kts | 291° |
| 2026-05-06 18:58 | -8.78746 | -46.84851 | 31474 ft | 529 kts | 291° |
| 2026-05-06 18:58 | -8.75932 | -46.91690 | 31474 ft | 529 kts | 291° |
| 2026-05-06 18:59 | -8.73120 | -46.98521 | 31474 ft | 529 kts | 291° |
| 2026-05-06 18:59 | -8.70306 | -47.05353 | 31474 ft | 529 kts | 291° |
| 2026-05-06 19:00 | -8.67487 | -47.12194 | 31474 ft | 529 kts | 291° |
| 2026-05-06 19:00 | -8.64660 | -47.19049 | 31473 ft | 529 kts | 291° |
| 2026-05-06 19:01 | -8.61842 | -47.25881 | 31473 ft | 529 kts | 291° |
| 2026-05-06 19:01 | -8.59021 | -47.32714 | 31473 ft | 529 kts | 291° |
| 2026-05-06 19:02 | -8.56188 | -47.39572 | 31473 ft | 529 kts | 291° |
| 2026-05-06 19:02 | -8.53367 | -47.46400 | 31473 ft | 529 kts | 291° |
| 2026-05-06 19:03 | -8.50544 | -47.53229 | 31473 ft | 529 kts | 291° |
| 2026-05-06 19:03 | -8.47710 | -47.60080 | 31473 ft | 529 kts | 291° |
| 2026-05-06 19:04 | -8.44883 | -47.66911 | 31473 ft | 529 kts | 291° |
| 2026-05-06 19:04 | -8.42057 | -47.73734 | 31473 ft | 529 kts | 291° |
| 2026-05-06 19:05 | -8.39229 | -47.80563 | 31473 ft | 529 kts | 291° |
| 2026-05-06 19:05 | -8.36390 | -47.87413 | 31473 ft | 529 kts | 291° |
| 2026-05-06 19:06 | -8.33561 | -47.94243 | 31472 ft | 529 kts | 291° |
| 2026-05-06 19:06 | -8.30733 | -48.01072 | 31472 ft | 529 kts | 291° |
| 2026-05-06 19:07 | -8.27897 | -48.07916 | 31472 ft | 529 kts | 291° |
| 2026-05-06 19:07 | -8.25068 | -48.14741 | 31472 ft | 529 kts | 291° |
| 2026-05-06 19:08 | -8.22240 | -48.21560 | 31586 ft | 527 kts | 291° |
| 2026-05-06 19:08 | -8.19421 | -48.28353 | 31614 ft | 527 kts | 291° |
| 2026-05-06 19:09 | -8.16584 | -48.35189 | 31614 ft | 528 kts | 291° |
| 2026-05-06 19:09 | -8.13757 | -48.41993 | 31613 ft | 528 kts | 291° |
| 2026-05-06 19:10 | -8.10924 | -48.48806 | 31613 ft | 529 kts | 291° |
| 2026-05-06 19:10 | -8.08077 | -48.55650 | 31613 ft | 529 kts | 291° |
| 2026-05-06 19:11 | -8.05236 | -48.62476 | 31613 ft | 529 kts | 291° |
| 2026-05-06 19:11 | -8.02394 | -48.69300 | 31613 ft | 530 kts | 291° |
| 2026-05-06 19:12 | -7.99546 | -48.76135 | 31613 ft | 530 kts | 291° |
| 2026-05-06 19:12 | -7.96697 | -48.82969 | 31613 ft | 530 kts | 291° |
| 2026-05-06 19:13 | -7.93851 | -48.89794 | 31613 ft | 530 kts | 291° |
| 2026-05-06 19:13 | -7.91004 | -48.96615 | 31613 ft | 530 kts | 291° |
| 2026-05-06 19:14 | -7.88154 | -49.03441 | 31613 ft | 530 kts | 291° |
| 2026-05-06 19:14 | -7.85294 | -49.10288 | 31613 ft | 530 kts | 291° |
| 2026-05-06 19:15 | -7.82443 | -49.17109 | 31613 ft | 530 kts | 291° |
| 2026-05-06 19:15 | -7.79593 | -49.23927 | 31613 ft | 530 kts | 291° |
| 2026-05-06 19:16 | -7.76728 | -49.30776 | 31612 ft | 530 kts | 291° |
| 2026-05-06 19:16 | -7.73874 | -49.37594 | 31612 ft | 530 kts | 291° |
| 2026-05-06 19:17 | -7.71018 | -49.44415 | 31612 ft | 530 kts | 291° |
| 2026-05-06 19:17 | -7.68162 | -49.51234 | 31612 ft | 530 kts | 291° |
| 2026-05-06 19:18 | -7.65291 | -49.58083 | 31612 ft | 530 kts | 291° |
| 2026-05-06 19:18 | -7.62435 | -49.64897 | 31612 ft | 530 kts | 291° |
| 2026-05-06 19:19 | -7.59576 | -49.71714 | 31612 ft | 530 kts | 291° |
| 2026-05-06 19:19 | -7.56698 | -49.78566 | 31612 ft | 530 kts | 291° |
| 2026-05-06 19:20 | -7.53835 | -49.85381 | 31612 ft | 530 kts | 291° |
| 2026-05-06 19:20 | -7.50969 | -49.92198 | 31612 ft | 530 kts | 291° |
| 2026-05-06 19:21 | -7.48101 | -49.99017 | 31612 ft | 530 kts | 291° |
| 2026-05-06 19:21 | -7.45227 | -50.05848 | 31612 ft | 530 kts | 291° |
| 2026-05-06 19:22 | -7.42366 | -50.12645 | 31612 ft | 530 kts | 291° |
| 2026-05-06 19:22 | -7.39486 | -50.19484 | 31612 ft | 530 kts | 291° |
| 2026-05-06 19:23 | -7.36616 | -50.26294 | 31680 ft | 529 kts | 291° |
| 2026-05-06 19:23 | -7.33751 | -50.33092 | 31683 ft | 529 kts | 291° |
| 2026-05-06 19:24 | -7.30883 | -50.39893 | 31683 ft | 530 kts | 291° |
| 2026-05-06 19:24 | -7.28001 | -50.46724 | 31683 ft | 530 kts | 291° |
| 2026-05-06 19:25 | -7.25128 | -50.53532 | 31683 ft | 530 kts | 291° |
| 2026-05-06 19:25 | -7.22253 | -50.60338 | 31683 ft | 530 kts | 291° |
| 2026-05-06 19:26 | -7.19376 | -50.67150 | 31683 ft | 530 kts | 291° |
| 2026-05-06 19:26 | -7.16492 | -50.73977 | 31683 ft | 530 kts | 291° |
| 2026-05-06 19:27 | -7.13611 | -50.80786 | 31683 ft | 531 kts | 291° |
| 2026-05-06 19:27 | -7.10727 | -50.87599 | 31683 ft | 531 kts | 291° |
| 2026-05-06 19:28 | -7.07834 | -50.94430 | 31682 ft | 531 kts | 291° |
| 2026-05-06 19:28 | -7.04952 | -51.01231 | 31682 ft | 531 kts | 291° |
| 2026-05-06 19:29 | -7.02064 | -51.08045 | 31682 ft | 531 kts | 291° |
| 2026-05-06 19:29 | -6.99179 | -51.14848 | 31681 ft | 531 kts | 291° |
| 2026-05-06 19:30 | -6.96288 | -51.21661 | 31681 ft | 531 kts | 291° |
| 2026-05-06 19:30 | -6.93393 | -51.28483 | 31680 ft | 531 kts | 291° |
| 2026-05-06 19:31 | -6.90504 | -51.35290 | 31680 ft | 531 kts | 291° |
| 2026-05-06 19:31 | -6.86370 | -51.45020 | 31679 ft | 531 kts | 291° |
| 2026-05-06 19:32 | -6.83571 | -51.51606 | 31678 ft | 531 kts | 291° |
| 2026-05-06 19:32 | -6.80677 | -51.58412 | 31678 ft | 531 kts | 291° |
| 2026-05-06 19:33 | -6.77783 | -51.65216 | 31677 ft | 531 kts | 292° |
| 2026-05-06 19:33 | -6.74879 | -51.72038 | 31677 ft | 531 kts | 292° |
| 2026-05-06 19:34 | -6.71982 | -51.78841 | 31676 ft | 531 kts | 292° |
| 2026-05-06 19:34 | -6.69084 | -51.85643 | 31675 ft | 531 kts | 292° |
| 2026-05-06 19:35 | -6.66188 | -51.92439 | 31675 ft | 531 kts | 292° |
| 2026-05-06 19:35 | -6.63276 | -51.99268 | 31674 ft | 531 kts | 292° |
| 2026-05-06 19:36 | -6.60375 | -52.06066 | 31674 ft | 531 kts | 292° |
| 2026-05-06 19:36 | -6.57473 | -52.12866 | 31673 ft | 531 kts | 292° |
| 2026-05-06 19:37 | -6.54560 | -52.19690 | 31673 ft | 531 kts | 292° |
| 2026-05-06 19:37 | -6.52145 | -52.25345 | 31633 ft | 532 kts | 292° |
| 2026-05-06 19:38 | -6.48760 | -52.33267 | 31610 ft | 532 kts | 292° |
| 2026-05-06 19:38 | -6.45839 | -52.40101 | 31610 ft | 532 kts | 292° |
| 2026-05-06 19:39 | -6.42919 | -52.46930 | 31610 ft | 531 kts | 292° |
| 2026-05-06 19:39 | -6.40012 | -52.53726 | 31610 ft | 531 kts | 292° |
| 2026-05-06 19:40 | -6.37102 | -52.60527 | 31610 ft | 531 kts | 292° |
| 2026-05-06 19:40 | -6.34181 | -52.67351 | 31610 ft | 531 kts | 292° |
| 2026-05-06 19:41 | -6.31274 | -52.74137 | 31610 ft | 531 kts | 292° |
| 2026-05-06 19:41 | -6.28363 | -52.80933 | 31610 ft | 531 kts | 292° |
| 2026-05-06 19:42 | -6.25449 | -52.87729 | 31610 ft | 531 kts | 292° |
| 2026-05-06 19:42 | -6.22526 | -52.94545 | 31610 ft | 531 kts | 292° |
| 2026-05-06 19:43 | -6.19613 | -53.01336 | 31610 ft | 531 kts | 292° |
| 2026-05-06 19:43 | -6.16698 | -53.08128 | 31631 ft | 531 kts | 292° |
| 2026-05-06 19:44 | -6.13776 | -53.14932 | 31666 ft | 530 kts | 292° |
| 2026-05-06 19:44 | -6.10865 | -53.21711 | 31665 ft | 531 kts | 292° |
| 2026-05-06 19:45 | -6.07950 | -53.28495 | 31664 ft | 531 kts | 292° |
| 2026-05-06 19:45 | -6.05032 | -53.35284 | 31664 ft | 531 kts | 292° |
| 2026-05-06 19:46 | -6.02105 | -53.42094 | 31664 ft | 531 kts | 292° |
| 2026-05-06 19:46 | -5.99186 | -53.48880 | 31663 ft | 531 kts | 292° |
| 2026-05-06 19:47 | -5.96265 | -53.55669 | 31663 ft | 531 kts | 292° |
| 2026-05-06 19:47 | -5.93327 | -53.62491 | 31635 ft | 532 kts | 292° |
| 2026-05-06 19:48 | -5.90400 | -53.69282 | 31633 ft | 532 kts | 292° |
| 2026-05-06 19:48 | -5.87472 | -53.76074 | 31633 ft | 532 kts | 292° |
| 2026-05-06 19:49 | -5.84544 | -53.82866 | 31632 ft | 532 kts | 292° |
| 2026-05-06 19:49 | -5.81605 | -53.89679 | 31631 ft | 532 kts | 292° |
| 2026-05-06 19:50 | -5.78674 | -53.96471 | 31630 ft | 532 kts | 292° |
| 2026-05-06 19:50 | -5.75746 | -54.03254 | 31629 ft | 532 kts | 292° |
| 2026-05-06 19:51 | -5.72803 | -54.10069 | 31630 ft | 532 kts | 292° |
| 2026-05-06 19:51 | -5.69877 | -54.16844 | 31659 ft | 531 kts | 292° |
| 2026-05-06 19:52 | -5.66946 | -54.23630 | 31659 ft | 531 kts | 292° |
| 2026-05-06 19:52 | -5.64013 | -54.30415 | 31659 ft | 532 kts | 292° |
| 2026-05-06 19:53 | -5.61070 | -54.37218 | 31658 ft | 532 kts | 292° |
| 2026-05-06 19:53 | -5.58135 | -54.44002 | 31658 ft | 532 kts | 292° |
| 2026-05-06 19:54 | -5.55201 | -54.50783 | 31658 ft | 532 kts | 292° |
| 2026-05-06 19:54 | -5.52254 | -54.57588 | 31657 ft | 532 kts | 292° |
| 2026-05-06 19:55 | -5.49317 | -54.64369 | 31657 ft | 532 kts | 292° |
| 2026-05-06 19:55 | -5.46378 | -54.71153 | 31657 ft | 532 kts | 292° |
| 2026-05-06 19:56 | -5.43437 | -54.77939 | 31657 ft | 532 kts | 292° |
| 2026-05-06 19:56 | -5.40487 | -54.84744 | 31656 ft | 532 kts | 292° |
| 2026-05-06 19:57 | -5.37544 | -54.91527 | 31656 ft | 532 kts | 292° |
| 2026-05-06 19:57 | -5.34602 | -54.98309 | 31656 ft | 532 kts | 292° |
| 2026-05-06 19:58 | -5.31648 | -55.05115 | 31656 ft | 532 kts | 292° |
| 2026-05-06 19:58 | -5.28703 | -55.11899 | 31655 ft | 532 kts | 292° |
| 2026-05-06 19:59 | -5.25768 | -55.18657 | 31655 ft | 532 kts | 292° |
| 2026-05-06 19:59 | -5.22812 | -55.25460 | 31655 ft | 532 kts | 292° |
| 2026-05-06 20:00 | -5.19855 | -55.32265 | 31655 ft | 532 kts | 292° |
| 2026-05-06 20:00 | -5.16906 | -55.39048 | 31654 ft | 532 kts | 292° |
| 2026-05-06 20:01 | -5.13960 | -55.45822 | 31654 ft | 532 kts | 292° |
| 2026-05-06 20:01 | -5.10998 | -55.52629 | 31654 ft | 532 kts | 292° |
| 2026-05-06 20:02 | -5.08048 | -55.59410 | 31654 ft | 532 kts | 292° |
| 2026-05-06 20:02 | -5.05096 | -55.66190 | 31653 ft | 532 kts | 292° |
| 2026-05-06 20:03 | -5.02146 | -55.72965 | 31653 ft | 532 kts | 292° |
| 2026-05-06 20:03 | -4.99182 | -55.79769 | 31653 ft | 532 kts | 292° |
| 2026-05-06 20:04 | -4.96230 | -55.86545 | 31653 ft | 532 kts | 292° |
| 2026-05-06 20:04 | -4.93276 | -55.93322 | 31652 ft | 532 kts | 292° |
| 2026-05-06 20:05 | -4.90308 | -56.00129 | 31652 ft | 532 kts | 292° |
| 2026-05-06 20:05 | -4.87352 | -56.06906 | 31652 ft | 532 kts | 292° |
| 2026-05-06 20:06 | -4.84396 | -56.13682 | 31652 ft | 533 kts | 292° |
| 2026-05-06 20:06 | -4.81439 | -56.20459 | 31652 ft | 533 kts | 292° |
| 2026-05-06 20:07 | -4.78478 | -56.27242 | 31651 ft | 533 kts | 292° |
| 2026-05-06 20:07 | -4.75513 | -56.34033 | 31651 ft | 533 kts | 292° |
| 2026-05-06 20:08 | -4.72552 | -56.40810 | 31651 ft | 533 kts | 292° |
| 2026-05-06 20:08 | -4.69577 | -56.47619 | 31651 ft | 533 kts | 292° |
| 2026-05-06 20:09 | -4.66617 | -56.54393 | 31651 ft | 533 kts | 292° |
| 2026-05-06 20:09 | -4.63658 | -56.61163 | 31651 ft | 533 kts | 292° |
| 2026-05-06 20:10 | -4.60692 | -56.67946 | 31650 ft | 533 kts | 292° |
| 2026-05-06 20:10 | -4.57639 | -56.74689 | 31648 ft | 533 kts | 297° |
| 2026-05-06 20:11 | -4.53334 | -56.80725 | 31650 ft | 536 kts | 312° |
| 2026-05-06 20:11 | -4.47636 | -56.85508 | 31650 ft | 537 kts | 327° |
| 2026-05-06 20:12 | -4.41120 | -56.89232 | 31650 ft | 538 kts | 331° |
| 2026-05-06 20:12 | -4.34535 | -56.92782 | 31650 ft | 538 kts | 331° |
| 2026-05-06 20:13 | -4.27948 | -56.96321 | 31650 ft | 538 kts | 331° |
| 2026-05-06 20:13 | -4.21347 | -56.99867 | 31650 ft | 538 kts | 331° |
| 2026-05-06 20:14 | -4.14735 | -57.03417 | 31650 ft | 538 kts | 331° |
| 2026-05-06 20:14 | -4.08137 | -57.06959 | 31650 ft | 538 kts | 331° |
| 2026-05-06 20:15 | -4.01536 | -57.10502 | 31650 ft | 538 kts | 331° |
| 2026-05-06 20:15 | -3.94942 | -57.14041 | 31650 ft | 538 kts | 331° |
| 2026-05-06 20:16 | -3.88318 | -57.17595 | 31650 ft | 538 kts | 331° |
| 2026-05-06 20:16 | -3.81716 | -57.21136 | 31650 ft | 539 kts | 331° |
| 2026-05-06 20:17 | -3.75117 | -57.24676 | 31650 ft | 539 kts | 331° |
| 2026-05-06 20:17 | -3.68487 | -57.28231 | 31563 ft | 540 kts | 331° |
| 2026-05-06 20:18 | -3.65183 | -57.29991 | 31446 ft | 542 kts | 332° |
| 2026-05-06 20:18 | -3.61796 | -57.31710 | 31405 ft | 543 kts | 333° |
| 2026-05-06 20:18 | -3.55046 | -57.35055 | 31406 ft | 541 kts | 333° |
| 2026-05-06 20:19 | -3.48275 | -57.38396 | 31409 ft | 541 kts | 333° |
| 2026-05-06 20:19 | -3.41535 | -57.41721 | 31412 ft | 540 kts | 333° |
| 2026-05-06 20:20 | -3.34804 | -57.45041 | 31415 ft | 540 kts | 333° |
| 2026-05-06 20:20 | -3.28067 | -57.48362 | 31418 ft | 539 kts | 333° |
| 2026-05-06 20:21 | -3.21318 | -57.51690 | 31420 ft | 539 kts | 333° |
| 2026-05-06 20:21 | -3.14587 | -57.55007 | 31423 ft | 539 kts | 333° |
| 2026-05-06 20:22 | -3.07870 | -57.58318 | 31426 ft | 539 kts | 333° |
| 2026-05-06 20:22 | -3.01113 | -57.61649 | 31428 ft | 539 kts | 333° |
| 2026-05-06 20:23 | -2.94683 | -57.65433 | 31430 ft | 538 kts | 322° |
| 2026-05-06 20:23 | -2.89341 | -57.70605 | 31433 ft | 535 kts | 308° |
| 2026-05-06 20:24 | -2.85091 | -57.76680 | 31437 ft | 535 kts | 302° |
| 2026-05-06 20:24 | -2.81063 | -57.82921 | 31592 ft | 532 kts | 301° |
| 2026-05-06 20:25 | -2.77666 | -57.89422 | 31650 ft | 529 kts | 289° |
| 2026-05-06 20:25 | -2.76061 | -57.96538 | 31649 ft | 527 kts | 273° |
| 2026-05-06 20:26 | -2.76358 | -58.03802 | 31651 ft | 524 kts | 259° |
| 2026-05-06 20:26 | -2.77684 | -58.10936 | 31649 ft | 524 kts | 257° |
| 2026-05-06 20:27 | -2.79107 | -58.18057 | 31649 ft | 525 kts | 257° |
| 2026-05-06 20:27 | -2.80538 | -58.25192 | 31648 ft | 525 kts | 257° |
| 2026-05-06 20:28 | -2.81969 | -58.32324 | 31648 ft | 526 kts | 257° |
| 2026-05-06 20:28 | -2.83408 | -58.39496 | 31648 ft | 526 kts | 257° |
| 2026-05-06 20:29 | -2.84834 | -58.46634 | 31647 ft | 526 kts | 258° |
| 2026-05-06 20:29 | -2.85532 | -58.53928 | 31648 ft | 528 kts | 265° |
| 2026-05-06 20:30 | -2.86090 | -58.64881 | 31646 ft | 521 kts | 265° |
| 2026-05-06 20:30 | -2.86262 | -58.68398 | 31638 ft | 497 kts | 265° |
| 2026-05-06 20:31 | -2.86424 | -58.71752 | 31637 ft | 475 kts | 265° |
| 2026-05-06 20:31 | -2.86580 | -58.74982 | 31640 ft | 463 kts | 265° |
| 2026-05-06 20:31 | -2.86738 | -58.78209 | 31646 ft | 465 kts | 265° |
| 2026-05-06 20:32 | -2.87051 | -58.84561 | 31647 ft | 466 kts | 265° |
| 2026-05-06 20:32 | -2.87372 | -58.91104 | 31646 ft | 466 kts | 265° |
| 2026-05-06 20:32 | -2.87531 | -58.94341 | 31247 ft | 468 kts | 265° |
| 2026-05-06 20:33 | -2.87688 | -58.97549 | 30630 ft | 461 kts | 265° |
| 2026-05-06 20:33 | -2.87844 | -59.00743 | 30001 ft | 455 kts | 265° |
| 2026-05-06 20:33 | -2.87996 | -59.03857 | 29380 ft | 449 kts | 265° |
| 2026-05-06 20:33 | -2.88147 | -59.06954 | 28756 ft | 445 kts | 265° |
| 2026-05-06 20:34 | -2.88295 | -59.09998 | 28138 ft | 442 kts | 265° |
| 2026-05-06 20:34 | -2.88445 | -59.13060 | 27511 ft | 438 kts | 265° |
| 2026-05-06 20:34 | -2.88591 | -59.16069 | 26888 ft | 434 kts | 265° |
| 2026-05-06 20:34 | -2.88737 | -59.19057 | 26265 ft | 430 kts | 265° |
| 2026-05-06 20:35 | -2.88882 | -59.22033 | 25638 ft | 426 kts | 265° |
| 2026-05-06 20:35 | -2.89025 | -59.24972 | 25014 ft | 422 kts | 265° |
| 2026-05-06 20:35 | -2.89166 | -59.27879 | 24390 ft | 418 kts | 265° |
| 2026-05-06 20:35 | -2.89306 | -59.30751 | 23769 ft | 414 kts | 265° |
| 2026-05-06 20:36 | -2.89445 | -59.33606 | 23145 ft | 411 kts | 265° |
| 2026-05-06 20:36 | -2.89582 | -59.36430 | 22523 ft | 407 kts | 265° |
| 2026-05-06 20:36 | -2.89718 | -59.39233 | 21900 ft | 403 kts | 265° |
| 2026-05-06 20:36 | -2.89854 | -59.42030 | 21272 ft | 400 kts | 265° |
| 2026-05-06 20:37 | -2.89988 | -59.44781 | 20650 ft | 396 kts | 265° |
| 2026-05-06 20:37 | -2.90120 | -59.47515 | 20025 ft | 393 kts | 265° |
| 2026-05-06 20:37 | -2.90251 | -59.50217 | 19403 ft | 389 kts | 265° |
| 2026-05-06 20:37 | -2.90381 | -59.52896 | 18780 ft | 386 kts | 265° |
| 2026-05-06 20:38 | -2.90509 | -59.55532 | 18162 ft | 382 kts | 265° |
| 2026-05-06 20:38 | -2.90638 | -59.58191 | 17533 ft | 379 kts | 265° |
| 2026-05-06 20:38 | -2.90765 | -59.60815 | 16907 ft | 376 kts | 265° |
| 2026-05-06 20:38 | -2.90891 | -59.63406 | 16283 ft | 372 kts | 265° |
| 2026-05-06 20:39 | -2.91015 | -59.65969 | 15661 ft | 369 kts | 265° |
| 2026-05-06 20:39 | -2.91139 | -59.68521 | 15036 ft | 366 kts | 265° |
| 2026-05-06 20:39 | -2.91261 | -59.71040 | 14413 ft | 363 kts | 265° |
| 2026-05-06 20:39 | -2.91382 | -59.73543 | 13789 ft | 360 kts | 265° |
| 2026-05-06 20:40 | -2.91502 | -59.76018 | 13167 ft | 357 kts | 265° |
| 2026-05-06 20:40 | -2.91621 | -59.78485 | 12546 ft | 352 kts | 265° |
| 2026-05-06 20:40 | -2.91717 | -59.80493 | 12430 ft | 336 kts | 265° |
| 2026-05-06 20:40 | -2.91824 | -59.82747 | 12386 ft | 315 kts | 265° |
| 2026-05-06 20:41 | -2.91940 | -59.85206 | 12169 ft | 300 kts | 264° |
| 2026-05-06 20:41 | -2.92040 | -59.87269 | 11732 ft | 297 kts | 264° |
| 2026-05-06 20:41 | -2.92139 | -59.89313 | 11250 ft | 295 kts | 264° |
| 2026-05-06 20:41 | -2.92238 | -59.91351 | 10763 ft | 293 kts | 264° |
| 2026-05-06 20:42 | -2.92336 | -59.93376 | 10274 ft | 291 kts | 264° |
| 2026-05-06 20:42 | -2.92434 | -59.95383 | 9785 ft | 289 kts | 264° |
| 2026-05-06 20:42 | -2.92530 | -59.97374 | 9294 ft | 287 kts | 264° |
| 2026-05-06 20:42 | -2.92626 | -59.99351 | 8801 ft | 285 kts | 264° |
| 2026-05-06 20:43 | -2.92722 | -60.01319 | 8306 ft | 283 kts | 264° |
| 2026-05-06 20:43 | -2.92816 | -60.03269 | 7811 ft | 281 kts | 264° |
| 2026-05-06 20:43 | -2.92911 | -60.05205 | 7319 ft | 279 kts | 264° |
| 2026-05-06 20:43 | -2.93005 | -60.07152 | 6824 ft | 277 kts | 264° |
| 2026-05-06 20:44 | -2.93096 | -60.09036 | 6531 ft | 268 kts | 264° |
| 2026-05-06 20:44 | -2.93179 | -60.10809 | 6524 ft | 239 kts | 264° |
| 2026-05-06 20:44 | -2.93251 | -60.12374 | 6466 ft | 214 kts | 264° |
| 2026-05-06 20:44 | -2.93320 | -60.13809 | 6195 ft | 204 kts | 263° |
| 2026-05-06 20:45 | -2.93389 | -60.15210 | 5794 ft | 201 kts | 263° |
| 2026-05-06 20:45 | -2.93458 | -60.16597 | 5374 ft | 200 kts | 263° |
| 2026-05-06 20:45 | -2.93527 | -60.17981 | 4951 ft | 198 kts | 263° |
| 2026-05-06 20:45 | -2.93595 | -60.19354 | 4530 ft | 197 kts | 263° |
| 2026-05-06 20:46 | -2.93663 | -60.20700 | 4244 ft | 195 kts | 263° |
| 2026-05-06 20:46 | -2.93900 | -60.22023 | 4084 ft | 188 kts | 239° |
| 2026-05-06 20:46 | -2.94789 | -60.22898 | 3600 ft | 181 kts | 200° |
| 2026-05-06 20:46 | -2.96027 | -60.23051 | 3232 ft | 185 kts | 181° |
| 2026-05-06 20:47 | -2.97344 | -60.23022 | 3150 ft | 190 kts | 180° |
| 2026-05-06 20:47 | -2.98659 | -60.22986 | 3129 ft | 188 kts | 181° |
| 2026-05-06 20:47 | -2.99968 | -60.22950 | 3132 ft | 188 kts | 180° |
| 2026-05-06 20:47 | -3.01300 | -60.22914 | 3129 ft | 193 kts | 179° |
| 2026-05-06 20:48 | -3.02611 | -60.22855 | 3132 ft | 191 kts | 173° |
| 2026-05-06 20:48 | -3.03747 | -60.22266 | 2897 ft | 187 kts | 135° |
| 2026-05-06 20:48 | -3.04271 | -60.21072 | 2389 ft | 196 kts | 95° |
| 2026-05-06 20:48 | -3.04229 | -60.19716 | 2047 ft | 195 kts | 88° |
| 2026-05-06 20:49 | -3.04132 | -60.18426 | 1993 ft | 172 kts | 88° |
| 2026-05-06 20:49 | -3.04047 | -60.17323 | 1958 ft | 152 kts | 88° |
| 2026-05-06 20:49 | -3.03971 | -60.16311 | 1946 ft | 141 kts | 88° |
| 2026-05-06 20:49 | -3.03899 | -60.15339 | 1966 ft | 140 kts | 88° |
| 2026-05-06 20:50 | -3.03836 | -60.14367 | 1959 ft | 141 kts | 92° |
| 2026-05-06 20:50 | -3.03834 | -60.13400 | 1766 ft | 139 kts | 93° |
| 2026-05-06 20:50 | -3.03837 | -60.12430 | 1573 ft | 140 kts | 93° |
| 2026-05-06 20:50 | -3.03840 | -60.11454 | 1371 ft | 139 kts | 93° |
| 2026-05-06 20:51 | -3.03844 | -60.10485 | 1174 ft | 140 kts | 93° |
| 2026-05-06 20:51 | -3.03847 | -60.09513 | 974 ft | 140 kts | 93° |
| 2026-05-06 20:51 | -3.03850 | -60.08547 | 775 ft | 140 kts | 93° |
| 2026-05-06 20:51 | -3.03853 | -60.07575 | 578 ft | 140 kts | 93° |
| 2026-05-06 20:52 | -3.03857 | -60.06604 | 379 ft | 139 kts | 93° |
| 2026-05-06 20:52 | -3.03861 | -60.05670 | 239 ft | 126 kts | 91° |
| 2026-05-06 20:52 | -3.03862 | -60.04925 | 244 ft | 86 kts | 90° |
| 2026-05-06 20:52 | -3.03863 | -60.04453 | 246 ft | 51 kts | 90° |
| 2026-05-06 20:53 | -3.03864 | -60.04189 | 246 ft | 31 kts | 91° |
| 2026-05-06 20:53 | -3.03864 | -60.03992 | 246 ft | 26 kts | 90° |
| 2026-05-06 20:53 | -3.03865 | -60.03834 | 245 ft | 20 kts | 91° |
| 2026-05-06 20:53 | -3.03784 | -60.03766 | 241 ft | 16 kts | 359° |
| 2026-05-06 20:54 | -3.03700 | -60.03809 | 238 ft | 12 kts | 303° |
| 2026-05-06 20:54 | -3.03675 | -60.03881 | 238 ft | 11 kts | 285° |
| 2026-05-06 20:54 | -3.03657 | -60.03950 | 238 ft | 10 kts | 284° |
| 2026-05-06 20:54 | -3.03644 | -60.03999 | 238 ft | 10 kts | 284° |
| 2026-05-06 20:55 | -3.03625 | -60.04070 | 238 ft | 12 kts | 284° |
| 2026-05-06 20:55 | -3.03600 | -60.04159 | 238 ft | 15 kts | 287° |
| 2026-05-06 20:55 | -3.03559 | -60.04263 | 238 ft | 18 kts | 297° |
| 2026-05-06 20:55 | -3.03461 | -60.04348 | 238 ft | 20 kts | 330° |
| 2026-05-06 20:56 | -3.03336 | -60.04388 | 240 ft | 16 kts | 342° |
| 2026-05-06 20:56 | -3.03262 | -60.04406 | 242 ft | 6 kts | 347° |
| 2026-05-06 20:56 | -3.03252 | -60.04408 | 242 ft | 0 kts | 347° |
| 2026-05-06 20:56 | -3.03243 | -60.04410 | 243 ft | 1 kts | 346° |
| 2026-05-06 20:57 | -3.03241 | -60.04411 | 243 ft | 0 kts | 346° |